Time;durP1;ratioP1;P1;durP2;ratioP2;P2;SDS_P1;SDS_P2;PMS_P1;PMS_P2;Temp;Humidity;BMP_temperature;BMP_pressure;BME280_temperature;BME280_humidity;BME280_pressure;Samples;Min_cycle;Max_cycle;Signal;HPM_P1;HPM_P2
2021/05/28 00:01:49;;;;;;;13.90;7.42;;;;;;;17.68;71.02;100887.91;1705707;83;25665;-59
2021/05/28 00:04:16;;;;;;;14.90;7.62;;;;;;;17.68;70.95;100886.55;1705616;84;25614;-59
2021/05/28 00:06:43;;;;;;;16.10;6.22;;;;;;;17.68;71.00;100882.98;1705696;84;25702;-58
2021/05/28 00:09:10;;;;;;;10.90;5.85;;;;;;;17.71;71.06;100882.61;1705570;84;27495;-59
2021/05/28 00:11:38;;;;;;;9.58;5.00;;;;;;;17.73;71.13;100879.73;1693120;84;26095;-59
2021/05/28 00:14:06;;;;;;;12.13;5.47;;;;;;;17.56;70.80;100858.58;1704226;83;25598;-58
2021/05/28 00:16:33;;;;;;;10.85;5.05;;;;;;;17.71;70.92;100879.05;1695150;83;26441;-58
2021/05/28 00:19:00;;;;;;;7.83;5.25;;;;;;;17.72;70.96;100873.42;1662276;86;25572;-58
2021/05/28 00:21:27;;;;;;;14.87;5.87;;;;;;;17.73;71.11;100877.84;1662060;86;27423;-58
2021/05/28 00:23:54;;;;;;;14.58;5.80;;;;;;;17.76;71.09;100877.48;1694922;84;25410;-59
2021/05/28 00:26:21;;;;;;;15.10;6.25;;;;;;;17.79;71.23;100874.91;1695992;83;25666;-59
2021/05/28 00:28:49;;;;;;;19.48;6.05;;;;;;;17.76;70.76;100870.69;1696235;84;25792;-58
2021/05/28 00:31:20;;;;;;;10.55;5.83;;;;;;;17.74;70.84;100867.30;1696103;84;25357;-59
2021/05/28 00:33:47;;;;;;;13.13;5.22;;;;;;;17.69;71.27;100864.28;1710151;83;28120;-58
2021/05/28 00:36:15;;;;;;;11.65;6.33;;;;;;;17.51;71.12;100858.62;1717861;83;25747;-58
2021/05/28 00:38:42;;;;;;;12.98;6.53;;;;;;;17.44;71.10;100863.59;1708332;83;25585;-58
2021/05/28 00:41:09;;;;;;;12.33;6.10;;;;;;;17.40;71.26;100862.23;1700281;84;25768;-58
2021/05/28 00:43:36;;;;;;;16.95;6.90;;;;;;;17.36;71.44;100853.09;1700292;84;25759;-58
2021/05/28 00:46:04;;;;;;;16.67;6.85;;;;;;;17.33;71.50;100856.16;1679247;84;29527;-58
2021/05/28 00:48:31;;;;;;;9.78;6.72;;;;;;;17.31;71.76;100853.30;1664380;84;25770;-58
2021/05/28 00:50:58;;;;;;;11.10;5.45;;;;;;;17.25;71.91;100849.94;1656749;86;25736;-58
2021/05/28 00:53:27;;;;;;;13.32;5.97;;;;;;;17.17;72.28;100848.10;1658666;84;25743;-58
2021/05/28 00:55:56;;;;;;;11.05;6.17;;;;;;;17.11;72.33;100848.30;1663002;84;25583;-58
2021/05/28 00:58:23;;;;;;;10.80;6.28;;;;;;;17.09;72.62;100844.91;1656548;85;27982;-58
2021/05/28 01:00:50;;;;;;;10.03;5.42;;;;;;;17.08;73.14;100843.73;1656670;86;25692;-58
2021/05/28 01:03:18;;;;;;;7.83;5.80;;;;;;;17.07;73.21;100836.59;1656824;86;25546;-58
2021/05/28 01:05:45;;;;;;;10.58;5.53;;;;;;;17.02;74.04;100842.07;1656760;86;25777;-59
2021/05/28 01:08:12;;;;;;;10.28;5.50;;;;;;;17.00;73.61;100835.95;1656777;86;25671;-59
2021/05/28 01:10:39;;;;;;;8.18;5.47;;;;;;;17.04;73.80;100837.80;1656538;86;27426;-59
2021/05/28 01:13:09;;;;;;;10.38;5.47;;;;;;;17.09;73.94;100838.63;1656636;86;25649;-59
2021/05/28 01:15:37;;;;;;;10.60;6.00;;;;;;;17.12;74.06;100831.49;1656417;86;25571;-59
2021/05/28 01:18:05;;;;;;;7.62;5.25;;;;;;;17.15;73.94;100824.32;1656607;86;25747;-59
2021/05/28 01:20:33;;;;;;;12.35;4.95;;;;;;;17.20;74.16;100828.20;1656693;86;25787;-59
2021/05/28 01:23:02;;;;;;;13.58;5.12;;;;;;;17.25;74.23;100826.84;1656745;86;27396;-59
2021/05/28 01:25:30;;;;;;;16.32;5.00;;;;;;;17.26;74.05;100816.30;1656485;84;25661;-59
2021/05/28 01:27:58;;;;;;;11.50;5.62;;;;;;;17.25;73.99;100822.23;1656503;85;25545;-59
2021/05/28 01:30:26;;;;;;;11.68;5.00;;;;;;;17.28;73.96;100827.32;1656665;86;25756;-59
2021/05/28 01:32:55;;;;;;;5.95;4.70;;;;;;;17.28;73.83;100821.02;1660559;85;25649;-59
2021/05/28 01:35:23;;;;;;;9.85;5.22;;;;;;;17.30;73.78;100818.45;1667239;86;27391;-59
2021/05/28 01:37:51;;;;;;;9.98;4.72;;;;;;;17.28;73.44;100815.08;1696420;84;25613;-59
2021/05/28 01:40:21;;;;;;;14.20;5.62;;;;;;;17.29;73.56;100817.28;1696903;83;26142;-59
2021/05/28 01:42:48;;;;;;;12.80;4.78;;;;;;;17.33;73.79;100811.30;1695817;84;25754;-59
2021/05/28 01:45:18;;;;;;;12.60;4.75;;;;;;;17.35;73.67;100813.34;1694080;83;25602;-59
2021/05/28 01:47:45;;;;;;;15.60;5.12;;;;;;;17.37;73.55;100813.14;1683825;84;27431;-59
2021/05/28 01:50:14;;;;;;;6.25;4.00;;;;;;;17.39;73.57;100812.45;1694333;84;25672;-59
2021/05/28 01:52:42;;;;;;;10.93;4.40;;;;;;;17.39;73.31;100816.53;1703525;84;25593;-59
2021/05/28 01:55:13;;;;;;;10.35;5.28;;;;;;;17.40;73.41;100810.08;1703671;84;26349;-59
2021/05/28 01:57:41;;;;;;;12.07;4.80;;;;;;;17.38;73.12;100812.12;1703188;84;25863;-59
2021/05/28 02:00:14;;;;;;;11.95;4.47;;;;;;;17.38;73.06;100812.65;1703274;84;27394;-59
2021/05/28 02:02:41;;;;;;;10.58;4.92;;;;;;;17.35;72.88;100812.47;1703454;83;25770;-58
2021/05/28 02:05:10;;;;;;;9.00;4.10;;;;;;;17.35;72.95;100804.31;1703479;83;25515;-58
2021/05/28 02:07:38;;;;;;;15.25;4.35;;;;;;;17.33;72.85;100804.50;1703580;84;26330;-58
2021/05/28 02:10:07;;;;;;;13.70;5.10;;;;;;;17.31;72.72;100797.56;1703418;84;25626;-58
2021/05/28 02:12:34;;;;;;;7.67;4.80;;;;;;;17.30;72.70;100794.50;1703502;84;26821;-59
2021/05/28 02:15:02;;;;;;;8.35;4.28;;;;;;;17.26;72.42;100803.54;1703583;84;25539;-58
2021/05/28 02:17:30;;;;;;;6.62;4.33;;;;;;;17.19;72.34;100798.48;1664031;85;25637;-58
2021/05/28 02:19:58;;;;;;;7.95;4.45;;;;;;;17.13;72.13;100798.69;1649626;86;25744;-58
2021/05/28 02:22:24;;;;;;;6.25;4.47;;;;;;;17.05;72.37;100800.09;1642010;86;25730;-58
2021/05/28 02:24:52;;;;;;;12.80;4.58;;;;;;;17.03;72.40;100800.78;1636617;87;27410;-58
2021/05/28 02:27:19;;;;;;;16.93;5.25;;;;;;;16.95;72.09;100802.19;1636459;87;26499;-58
2021/05/28 02:29:45;;;;;;;7.25;4.70;;;;;;;16.87;72.09;100803.89;1636454;87;26100;-59
2021/05/28 02:32:12;;;;;;;12.73;5.55;;;;;;;16.79;72.01;100801.21;1638351;85;25595;-58
2021/05/28 02:34:40;;;;;;;15.90;5.70;;;;;;;16.73;72.06;100799.18;1636475;87;25703;-58
2021/05/28 02:37:06;;;;;;;7.53;5.50;;;;;;;16.67;72.20;100806.19;1636490;87;27450;-58
2021/05/28 02:39:34;;;;;;;6.50;5.87;;;;;;;16.61;72.42;100807.39;1636203;87;25415;-58
2021/05/28 02:42:01;;;;;;;8.93;5.00;;;;;;;16.51;72.27;100807.58;1636646;87;25831;-58
2021/05/28 02:44:28;;;;;;;9.15;4.90;;;;;;;16.45;72.80;100812.36;1636363;87;25789;-57
2021/05/28 02:46:56;;;;;;;8.03;4.22;;;;;;;16.34;72.98;100802.20;1640642;87;25772;-58
2021/05/28 02:49:23;;;;;;;10.25;4.33;;;;;;;16.28;73.12;100807.80;1640605;87;27442;-58
2021/05/28 02:51:52;;;;;;;10.43;4.97;;;;;;;16.25;73.41;100800.52;1640711;87;25588;-57
2021/05/28 02:54:18;;;;;;;16.50;5.00;;;;;;;16.21;73.55;100806.81;1640714;87;25607;-57
2021/05/28 02:56:45;;;;;;;12.65;5.12;;;;;;;16.23;73.77;100814.77;1639757;87;26221;-58
2021/05/28 02:59:12;;;;;;;9.08;4.47;;;;;;;16.25;74.04;100810.89;1640641;87;26331;-57
2021/05/28 03:01:39;;;;;;;14.53;5.17;;;;;;;16.28;74.03;100811.88;1640721;87;27488;-57
2021/05/28 03:04:06;;;;;;;13.40;4.80;;;;;;;16.33;74.05;100805.93;1640498;87;26287;-58
2021/05/28 03:06:33;;;;;;;6.72;4.53;;;;;;;16.37;74.37;100807.29;1621820;87;25689;-57
2021/05/28 03:09:00;;;;;;;11.85;4.72;;;;;;;16.34;73.89;100802.20;1640465;87;25770;-57
2021/05/28 03:11:27;;;;;;;6.67;4.90;;;;;;;16.36;73.90;100813.73;1640748;87;25673;-57
2021/05/28 03:13:54;;;;;;;10.72;5.78;;;;;;;16.39;74.07;100809.33;1640629;87;27929;-57
2021/05/28 03:16:21;;;;;;;15.55;6.58;;;;;;;16.45;74.21;100809.12;1635894;87;25831;-58
2021/05/28 03:18:55;;;;;;;8.98;5.03;;;;;;;16.52;74.28;100819.64;1656986;86;25632;-57
2021/05/28 03:21:23;;;;;;;10.98;5.42;;;;;;;16.57;74.23;100816.41;1658957;85;25643;-57
2021/05/28 03:23:53;;;;;;;11.57;7.45;;;;;;;16.64;74.16;100821.96;1674294;85;25355;-58
2021/05/28 03:26:22;;;;;;;7.97;4.72;;;;;;;16.70;74.03;100820.76;1674162;85;27330;-57
2021/05/28 03:28:49;;;;;;;7.55;4.55;;;;;;;16.77;73.72;100817.33;1673630;85;25652;-57
2021/05/28 03:31:16;;;;;;;11.70;7.15;;;;;;;16.76;73.69;100821.93;1673701;85;25609;-58
2021/05/28 03:33:44;;;;;;;8.50;4.70;;;;;;;16.79;73.71;100822.95;1673653;85;26925;-58
2021/05/28 03:36:13;;;;;;;8.40;4.70;;;;;;;16.84;73.57;100823.78;1673494;85;25489;-58
2021/05/28 03:38:41;;;;;;;10.08;4.40;;;;;;;16.90;73.53;100827.14;1666237;85;27312;-58
2021/05/28 03:41:10;;;;;;;9.53;4.17;;;;;;;16.97;73.51;100824.59;1666517;85;25765;-62
2021/05/28 03:43:37;;;;;;;14.23;4.72;;;;;;;17.00;73.53;100826.45;1695322;84;25669;-61
2021/05/28 03:46:07;;;;;;;9.00;4.70;;;;;;;17.09;73.56;100830.48;1669733;84;25509;-64
2021/05/28 03:48:35;;;;;;;10.90;5.58;;;;;;;17.17;73.38;100829.91;1645667;86;25705;-58
2021/05/28 03:51:02;;;;;;;22.48;5.28;;;;;;;17.23;73.46;100822.91;1661544;85;27304;-60
2021/05/28 03:53:29;;;;;;;18.55;5.47;;;;;;;17.28;73.47;100816.94;1661464;85;25727;-58
2021/05/28 03:55:55;;;;;;;12.58;4.28;;;;;;;17.36;73.47;100815.03;1661418;86;25678;-61
2021/05/28 03:58:22;;;;;;;15.08;4.90;;;;;;;17.43;73.22;100815.16;1661352;86;25871;-57
2021/05/28 04:00:50;;;;;;;12.95;6.40;;;;;;;17.50;73.35;100808.47;1661564;85;25546;-57
2021/05/28 04:03:17;;;;;;;12.35;4.00;;;;;;;17.52;72.95;100810.50;1661584;86;27459;-58
2021/05/28 04:05:43;;;;;;;8.08;4.30;;;;;;;17.53;72.88;100809.47;1661571;85;25678;-57
2021/05/28 04:08:10;;;;;;;9.85;4.28;;;;;;;17.55;72.87;100807.92;1661556;85;25592;-57
2021/05/28 04:10:37;;;;;;;15.38;4.85;;;;;;;17.57;72.76;100809.95;1661398;85;25754;-58
2021/05/28 04:13:05;;;;;;;11.35;4.95;;;;;;;17.63;72.88;100803.77;1661633;86;25610;-59
2021/05/28 04:15:33;;;;;;;18.45;4.97;;;;;;;17.72;72.84;100799.13;1666214;85;27274;-59
2021/05/28 04:18:00;;;;;;;6.95;4.08;;;;;;;17.80;72.93;100803.97;1664565;85;25628;-58
2021/05/28 04:20:27;;;;;;;11.95;4.80;;;;;;;17.87;72.73;100802.73;1665118;85;25614;-59
2021/05/28 04:22:54;;;;;;;12.88;5.25;;;;;;;17.95;72.62;100805.91;1703525;83;25714;-58
2021/05/28 04:25:22;;;;;;;17.95;6.20;;;;;;;18.04;72.63;100810.28;1695338;83;25602;-59
2021/05/28 04:27:49;;;;;;;16.23;5.97;;;;;;;18.17;72.69;100800.61;1692150;83;27411;-59
2021/05/28 04:30:23;;;;;;;9.53;5.33;;;;;;;18.30;72.59;100798.94;1701193;83;25548;-58
2021/05/28 04:32:46;;;;;;;10.32;6.28;;;;;;;18.38;71.95;100797.16;1677165;85;25572;-58
2021/05/28 04:35:14;;;;;;;13.22;6.10;;;;;;;18.46;71.74;100799.81;1677953;84;25772;-57
2021/05/28 04:37:40;;;;;;;29.72;9.58;;;;;;;18.53;71.51;100798.52;1678380;84;25831;-59
2021/05/28 04:40:10;;;;;;;19.35;11.03;;;;;;;18.63;71.33;100800.98;1678396;85;27996;-57
2021/05/28 04:42:37;;;;;;;27.27;10.18;;;;;;;18.75;71.17;100794.86;1650245;84;25629;-58
2021/05/28 04:45:07;;;;;;;25.35;10.30;;;;;;;18.85;70.87;100793.72;1624165;87;25637;-59
2021/05/28 04:47:34;;;;;;;23.75;11.63;;;;;;;18.95;70.59;100797.03;1685021;83;25608;-59
2021/05/28 04:50:02;;;;;;;24.63;8.90;;;;;;;19.06;70.26;100803.33;1656690;85;25736;-59
2021/05/28 04:52:28;;;;;;;19.37;8.08;;;;;;;19.17;69.98;100803.36;1670389;83;27301;-59
2021/05/28 04:54:56;;;;;;;22.87;7.03;;;;;;;19.27;69.75;100805.77;1680144;85;25588;-59
2021/05/28 04:57:23;;;;;;;14.85;5.37;;;;;;;19.34;69.63;100799.86;1714461;83;25532;-58
2021/05/28 04:59:49;;;;;;;24.30;6.70;;;;;;;19.43;69.50;100797.01;1714406;83;25755;-59
2021/05/28 05:02:16;;;;;;;22.40;5.62;;;;;;;19.47;69.12;100800.52;1714460;83;25612;-59
2021/05/28 05:04:44;;;;;;;24.23;5.83;;;;;;;19.52;68.87;100799.43;1714715;83;27817;-58
2021/05/28 05:07:11;;;;;;;14.05;5.08;;;;;;;19.57;68.77;100795.25;1713281;83;26341;-59
2021/05/28 05:09:37;;;;;;;18.67;6.72;;;;;;;19.64;68.69;100792.06;1713803;83;25682;-59
2021/05/28 05:12:06;;;;;;;21.27;7.62;;;;;;;19.75;68.46;100790.72;1712914;83;26546;-58
2021/05/28 05:14:33;;;;;;;29.23;7.28;;;;;;;19.85;68.49;100787.16;1713079;82;25782;-59
2021/05/28 05:17:00;;;;;;;15.05;5.78;;;;;;;20.01;68.25;100786.00;1713734;82;27406;-59
2021/05/28 05:19:26;;;;;;;14.20;4.92;;;;;;;20.15;67.42;100779.61;1714432;83;25583;-59
2021/05/28 05:21:53;;;;;;;21.30;5.60;;;;;;;20.24;67.49;100783.02;1714528;83;25645;-59
2021/05/28 05:24:20;;;;;;;15.10;5.58;;;;;;;20.28;66.50;100778.86;1714300;82;26421;-59
2021/05/28 05:26:49;;;;;;;8.75;5.45;;;;;;;20.30;66.68;100784.97;1714557;82;25575;-59
2021/05/28 05:29:16;;;;;;;18.10;6.35;;;;;;;20.41;66.62;100786.80;1714484;83;28318;-59
2021/05/28 05:31:44;;;;;;;18.50;5.37;;;;;;;20.42;66.32;100781.66;1714449;83;25703;-58
2021/05/28 05:34:11;;;;;;;7.28;4.65;;;;;;;20.45;66.58;100779.90;1714600;82;25594;-60
2021/05/28 05:36:40;;;;;;;10.00;5.05;;;;;;;20.51;65.93;100779.08;1714590;83;25760;-59
2021/05/28 05:39:08;;;;;;;22.17;4.85;;;;;;;20.52;65.59;100774.48;1707977;83;25780;-58
2021/05/28 05:41:35;;;;;;;8.03;4.17;;;;;;;20.49;65.23;100776.56;1709798;82;27455;-59
2021/05/28 05:44:04;;;;;;;10.03;4.75;;;;;;;20.46;65.02;100782.95;1716065;83;25776;-59
2021/05/28 05:46:31;;;;;;;22.45;6.33;;;;;;;20.43;64.87;100776.02;1720861;83;25665;-59
2021/05/28 05:48:57;;;;;;;6.53;4.80;;;;;;;20.46;64.84;100782.42;1721055;83;25767;-59
2021/05/28 05:51:25;;;;;;;12.55;5.08;;;;;;;20.48;64.69;100776.77;1720869;82;25707;-59
2021/05/28 05:53:52;;;;;;;10.82;5.33;;;;;;;20.51;64.63;100773.62;1720263;83;27493;-58
2021/05/28 05:56:19;;;;;;;15.80;5.28;;;;;;;20.57;64.26;100774.70;1720144;83;26586;-58
2021/05/28 05:58:46;;;;;;;15.30;4.80;;;;;;;20.59;63.99;100773.45;1720591;83;25393;-59
2021/05/28 06:01:13;;;;;;;11.03;4.58;;;;;;;20.59;64.25;100779.45;1720742;83;25814;-58
2021/05/28 06:03:40;;;;;;;12.65;4.28;;;;;;;20.63;64.18;100773.38;1721122;83;25621;-59
2021/05/28 06:06:07;;;;;;;12.35;4.80;;;;;;;20.67;64.41;100777.91;1716402;83;27429;-60
2021/05/28 06:08:39;;;;;;;7.47;4.03;;;;;;;20.78;64.67;100774.64;1720002;82;25396;-60
2021/05/28 06:11:06;;;;;;;13.95;4.40;;;;;;;20.92;64.71;100774.16;1717146;83;25602;-60
2021/05/28 06:13:35;;;;;;;14.98;4.47;;;;;;;21.01;64.30;100776.72;1721288;82;26060;-58
2021/05/28 06:16:03;;;;;;;10.72;4.55;;;;;;;21.10;64.22;100769.47;1720916;83;25564;-58
2021/05/28 06:18:30;;;;;;;21.17;4.87;;;;;;;21.29;64.14;100771.09;1721070;82;27411;-59
2021/05/28 06:20:57;;;;;;;26.07;4.90;;;;;;;21.47;63.77;100767.74;1720747;83;25666;-59
2021/05/28 06:23:24;;;;;;;18.50;4.58;;;;;;;21.64;62.99;100767.39;1720742;83;25686;-59
2021/05/28 06:25:51;;;;;;;18.60;4.05;;;;;;;21.82;63.00;100762.13;1721603;83;26544;-59
2021/05/28 06:28:18;;;;;;;8.48;4.42;;;;;;;22.01;62.51;100762.30;1720896;82;25642;-59
2021/05/28 06:30:45;;;;;;;13.18;3.85;;;;;;;22.15;61.75;100757.13;1720275;83;27409;-59
2021/05/28 06:33:12;;;;;;;7.78;3.55;;;;;;;22.22;61.17;100756.27;1736204;81;25639;-59
2021/05/28 06:35:40;;;;;;;10.25;4.20;;;;;;;22.24;59.77;100758.28;1751552;81;25639;-60
2021/05/28 06:38:09;;;;;;;22.13;4.62;;;;;;;22.30;60.15;100759.64;1748477;81;25760;-60
2021/05/28 06:40:37;;;;;;;11.28;3.50;;;;;;;22.36;60.53;100756.57;1702118;83;26246;-59
2021/05/28 06:43:05;;;;;;;18.65;4.10;;;;;;;22.37;59.97;100766.45;1696349;83;27478;-59
2021/05/28 06:45:35;;;;;;;15.93;4.47;;;;;;;22.35;59.93;100762.56;1709556;82;25527;-59
2021/05/28 06:48:05;;;;;;;14.68;4.75;;;;;;;22.37;59.93;100762.34;1710095;82;25609;-59
2021/05/28 06:50:32;;;;;;;16.45;4.47;;;;;;;22.42;59.91;100763.95;1707994;82;25722;-59
2021/05/28 06:53:00;;;;;;;13.72;4.75;;;;;;;22.51;59.76;100761.30;1716619;83;25709;-59
2021/05/28 06:55:27;;;;;;;18.70;7.67;;;;;;;22.59;59.49;100763.48;1715842;83;27470;-60
2021/05/28 06:57:55;;;;;;;19.73;4.90;;;;;;;22.64;58.80;100764.52;1713757;83;25717;-59
2021/05/28 07:00:23;;;;;;;16.97;4.50;;;;;;;22.56;57.30;100761.16;1717948;82;25552;-59
2021/05/28 07:02:50;;;;;;;18.32;4.80;;;;;;;22.50;56.67;100764.26;1685923;82;25691;-59
2021/05/28 07:05:17;;;;;;;19.60;4.50;;;;;;;22.42;57.09;100767.20;1680626;83;25646;-60
2021/05/28 07:07:44;;;;;;;14.05;4.28;;;;;;;22.47;57.59;100768.79;1709635;83;27411;-59
2021/05/28 07:10:12;;;;;;;23.40;5.58;;;;;;;22.61;57.67;100761.37;1711784;83;25669;-60
2021/05/28 07:12:39;;;;;;;45.98;17.40;;;;;;;22.82;57.80;100756.11;1709916;83;25887;-59
2021/05/28 07:15:08;;;;;;;23.92;8.00;;;;;;;23.01;57.37;100753.48;1712568;83;26368;-59
2021/05/28 07:17:36;;;;;;;26.20;5.83;;;;;;;23.19;57.08;100757.73;1712788;83;25635;-60
2021/05/28 07:20:05;;;;;;;16.62;5.40;;;;;;;23.34;56.47;100762.06;1708179;83;27401;-59
2021/05/28 07:22:32;;;;;;;20.88;4.08;;;;;;;23.42;55.22;100754.42;1709326;83;25721;-59
2021/05/28 07:24:59;;;;;;;21.07;4.67;;;;;;;23.40;54.79;100751.05;1706010;83;25665;-59
2021/05/28 07:27:27;;;;;;;16.80;4.30;;;;;;;23.40;55.07;100755.17;1713429;81;25826;-59
2021/05/28 07:29:54;;;;;;;13.00;4.33;;;;;;;23.36;55.26;100752.55;1710799;83;25554;-59
2021/05/28 07:32:22;;;;;;;19.40;5.47;;;;;;;23.33;54.91;100751.63;1709091;81;27446;-59
2021/05/28 07:34:49;;;;;;;22.42;5.28;;;;;;;23.31;54.76;100757.05;1710126;83;25741;-59
2021/05/28 07:37:16;;;;;;;16.73;4.10;;;;;;;23.31;54.98;100760.61;1709257;83;25579;-59
2021/05/28 07:39:43;;;;;;;14.73;4.08;;;;;;;23.32;54.33;100761.44;1708692;83;25759;-59
2021/05/28 07:42:10;;;;;;;8.95;3.20;;;;;;;23.26;53.76;100762.65;1711053;81;25327;-59
2021/05/28 07:44:37;;;;;;;11.95;3.55;;;;;;;23.10;53.13;100759.86;1708252;82;28164;-60
2021/05/28 07:47:06;;;;;;;14.93;3.17;;;;;;;22.93;53.38;100762.80;1712639;81;25700;-59
2021/05/28 07:49:33;;;;;;;8.73;2.92;;;;;;;22.88;53.35;100761.25;1714192;83;25595;-59
2021/05/28 07:52:00;;;;;;;20.05;3.27;;;;;;;22.81;52.46;100760.77;1709994;83;25762;-60
2021/05/28 07:54:27;;;;;;;8.50;3.30;;;;;;;22.78;52.67;100762.56;1702611;83;25440;-60
2021/05/28 07:56:54;;;;;;;20.72;3.02;;;;;;;22.72;52.87;100759.84;1708668;81;27474;-60
2021/05/28 07:59:21;;;;;;;15.88;3.55;;;;;;;22.74;53.35;100759.93;1709471;83;25530;-60
2021/05/28 08:01:48;;;;;;;7.50;3.30;;;;;;;22.77;53.04;100767.73;1708501;81;25564;-60
2021/05/28 08:04:15;;;;;;;9.08;3.27;;;;;;;22.73;51.91;100776.06;1714128;83;25847;-59
2021/05/28 08:06:42;;;;;;;11.22;2.95;;;;;;;22.57;52.54;100775.18;1706306;83;25654;-59
2021/05/28 08:09:09;;;;;;;15.50;3.45;;;;;;;22.59;53.12;100776.64;1708390;83;27409;-59
2021/05/28 08:11:36;;;;;;;15.32;4.17;;;;;;;22.60;53.31;100774.76;1712759;83;25689;-60
2021/05/28 08:14:04;;;;;;;5.55;3.10;;;;;;;22.59;52.94;100772.53;1714034;81;25683;-59
2021/05/28 08:16:31;;;;;;;5.53;2.80;;;;;;;22.58;53.28;100773.62;1714021;83;25755;-57
2021/05/28 08:18:58;;;;;;;7.62;2.50;;;;;;;22.58;52.80;100777.73;1707663;81;25677;-58
2021/05/28 08:21:25;;;;;;;5.58;2.75;;;;;;;22.48;51.50;100774.05;1711090;82;27816;-60
2021/05/28 08:23:52;;;;;;;9.40;2.70;;;;;;;22.39;52.07;100774.48;1707293;83;25716;-59
2021/05/28 08:26:19;;;;;;;9.35;2.77;;;;;;;22.39;51.86;100777.22;1711740;83;25574;-59
2021/05/28 08:28:46;;;;;;;16.55;4.65;;;;;;;22.38;51.45;100783.75;1714617;81;26381;-59
2021/05/28 08:31:13;;;;;;;10.05;3.40;;;;;;;22.33;51.89;100789.87;1714797;83;25607;-58
2021/05/28 08:33:42;;;;;;;7.50;3.17;;;;;;;22.36;51.66;100782.61;1717104;82;28133;-59
2021/05/28 08:36:09;;;;;;;14.35;3.08;;;;;;;22.34;52.08;100775.95;1707457;83;25654;-59
2021/05/28 08:38:36;;;;;;;5.37;3.40;;;;;;;22.32;51.79;100780.80;1711409;83;25713;-59
2021/05/28 08:41:03;;;;;;;9.15;3.17;;;;;;;22.22;52.45;100786.41;1714193;83;26931;-59
2021/05/28 08:43:31;;;;;;;16.02;3.10;;;;;;;22.20;52.25;100772.94;1717284;83;25831;-59
2021/05/28 08:46:01;;;;;;;15.80;3.15;;;;;;;22.22;52.80;100774.08;1720995;83;27916;-59
2021/05/28 08:48:28;;;;;;;12.20;3.40;;;;;;;22.26;53.06;100769.88;1720830;82;25526;-59
2021/05/28 08:50:55;;;;;;;10.15;3.42;;;;;;;22.31;53.20;100775.03;1720893;83;25653;-59
2021/05/28 08:53:24;;;;;;;7.03;2.90;;;;;;;22.33;53.76;100775.63;1717027;83;26426;-59
2021/05/28 08:55:51;;;;;;;11.85;4.37;;;;;;;22.37;54.53;100777.41;1720461;83;25661;-58
2021/05/28 08:58:23;;;;;;;13.43;4.10;;;;;;;22.44;54.91;100773.32;1721093;83;27421;-59
2021/05/28 09:00:48;;;;;;;6.95;4.05;;;;;;;22.45;54.85;100769.53;1719918;82;25782;-59
2021/05/28 09:03:36;;;;;;;9.95;3.85;;;;;;;22.51;55.38;100777.73;1721001;83;25601;-60
2021/05/28 09:06:19;;;;;;;7.30;3.92;;;;;;;22.60;55.59;100776.95;1720676;83;26354;-59
2021/05/28 09:08:46;;;;;;;10.43;3.92;;;;;;;22.65;56.38;100783.16;1721055;82;25405;-59
2021/05/28 09:11:17;;;;;;;16.73;5.17;;;;;;;22.58;56.94;100782.34;1720716;83;27412;-59
2021/05/28 09:13:49;;;;;;;9.15;5.17;;;;;;;22.49;56.96;100787.24;1720264;83;25668;-59
2021/05/28 09:16:20;;;;;;;12.68;5.65;;;;;;;22.43;57.20;100792.19;1720701;83;25778;-59
2021/05/28 09:18:54;;;;;;;14.28;5.72;;;;;;;22.36;56.93;100793.03;1720997;83;25731;-59
2021/05/28 09:21:29;;;;;;;12.45;5.60;;;;;;;22.24;56.49;100783.77;1716992;82;25644;-59
2021/05/28 09:23:55;;;;;;;11.40;5.67;;;;;;;22.04;56.92;100783.80;1720641;82;28662;-60
2021/05/28 09:26:25;;;;;;;11.68;5.92;;;;;;;21.82;57.16;100788.14;1720763;83;25545;-59
2021/05/28 09:28:54;;;;;;;9.75;6.70;;;;;;;21.58;57.12;100780.02;1720901;83;25581;-59
2021/05/28 09:31:25;;;;;;;19.73;7.05;;;;;;;21.53;57.78;100773.77;1721337;83;26298;-58
2021/05/28 09:33:55;;;;;;;11.63;7.10;;;;;;;21.55;58.30;100767.56;1722680;81;25757;-58
2021/05/28 09:36:28;;;;;;;14.40;7.17;;;;;;;21.52;58.13;100787.13;1720706;82;27370;-58
2021/05/28 09:39:14;;;;;;;11.97;7.50;;;;;;;21.44;58.36;100794.17;1716342;83;25665;-58
2021/05/28 09:41:57;;;;;;;13.08;7.37;;;;;;;21.38;58.93;100790.38;1718656;83;25680;-58
2021/05/28 09:44:31;;;;;;;15.23;8.38;;;;;;;21.25;60.32;100795.30;1711023;82;26516;-58
2021/05/28 09:47:19;;;;;;;15.45;8.53;;;;;;;21.17;61.55;100796.85;1705461;83;25489;-58
2021/05/28 09:49:49;;;;;;;20.37;12.40;;;;;;;21.19;62.14;100789.80;1712014;83;28159;-58
2021/05/28 09:52:20;;;;;;;16.10;9.45;;;;;;;21.23;62.88;100786.98;1715288;83;25656;-58
2021/05/28 09:55:06;;;;;;;12.88;7.90;;;;;;;21.42;63.44;100799.87;1706869;83;25705;-59
2021/05/28 09:57:46;;;;;;;26.30;9.70;;;;;;;21.74;62.88;100796.54;1713394;83;25909;-59
2021/05/28 10:00:33;;;;;;;12.88;9.10;;;;;;;22.15;62.52;100793.27;1709926;81;25615;-59
2021/05/28 10:03:26;;;;;;;19.35;8.80;;;;;;;22.54;62.34;100788.80;1707682;83;28009;-59
2021/05/28 10:05:59;;;;;;;14.47;8.73;;;;;;;23.05;61.96;100789.86;1713951;83;25731;-59
2021/05/28 10:08:28;;;;;;;11.43;7.53;;;;;;;23.43;60.83;100795.91;1715414;83;25511;-59
2021/05/28 10:10:57;;;;;;;10.80;6.28;;;;;;;23.69;58.25;100803.64;1714241;81;25736;-59
2021/05/28 10:13:26;;;;;;;17.12;6.60;;;;;;;23.88;57.24;100792.73;1712716;81;25628;-58
2021/05/28 10:15:56;;;;;;;9.65;6.58;;;;;;;24.09;55.90;100794.25;1705298;83;27404;-59
2021/05/28 10:18:24;;;;;;;6.05;3.75;;;;;;;24.22;55.30;100794.66;1706822;81;25656;-58
2021/05/28 10:20:54;;;;;;;8.55;4.50;;;;;;;24.16;52.11;100795.58;1711820;83;25754;-59
2021/05/28 10:23:23;;;;;;;7.15;4.65;;;;;;;24.13;51.05;100803.71;1705900;82;25733;-59
2021/05/28 10:25:56;;;;;;;7.53;5.15;;;;;;;23.98;52.27;100797.19;1709200;83;25366;-57
2021/05/28 10:28:30;;;;;;;7.75;4.97;;;;;;;24.01;53.32;100802.79;1712266;82;27451;-58
2021/05/28 10:30:57;;;;;;;5.65;3.30;;;;;;;24.00;53.45;100790.11;1703866;81;25626;-59
2021/05/28 10:33:32;;;;;;;7.33;3.80;;;;;;;23.89;51.66;100803.48;1712078;83;25621;-59
2021/05/28 10:36:07;;;;;;;13.05;3.70;;;;;;;23.59;50.96;100793.14;1711168;83;25758;-60
2021/05/28 10:38:47;;;;;;;13.30;3.67;;;;;;;23.32;50.71;100789.75;1712661;83;25690;-59
2021/05/28 10:41:22;;;;;;;16.15;3.60;;;;;;;23.08;51.87;100799.04;1712602;83;27425;-60
2021/05/28 10:43:55;;;;;;;16.30;3.95;;;;;;;22.80;51.94;100798.84;1716207;83;25621;-60
2021/05/28 10:46:22;;;;;;;9.50;3.90;;;;;;;22.66;53.30;100793.08;1720248;83;25329;-60
2021/05/28 10:49:06;;;;;;;14.00;3.65;;;;;;;22.58;53.38;100790.06;1720282;82;26108;-60
2021/05/28 10:51:34;;;;;;;7.45;3.75;;;;;;;22.49;54.22;100783.95;1718935;81;25590;-60
2021/05/28 10:54:06;;;;;;;6.10;3.92;;;;;;;22.43;54.28;100786.71;1717385;81;28094;-60
2021/05/28 10:56:42;;;;;;;7.37;3.70;;;;;;;22.36;54.50;100793.03;1721583;82;25349;-59
2021/05/28 10:59:14;;;;;;;6.58;3.67;;;;;;;22.34;55.11;100791.56;1716034;82;25668;-60
2021/05/28 11:01:57;;;;;;;14.53;4.70;;;;;;;22.28;55.32;100789.14;1720704;81;25829;-59
2021/05/28 11:04:32;;;;;;;11.33;3.45;;;;;;;22.27;56.25;100783.89;1720961;81;25681;-59
2021/05/28 11:07:10;;;;;;;8.73;3.20;;;;;;;22.20;56.26;100786.63;1712200;82;28332;-59
2021/05/28 11:09:42;;;;;;;9.65;3.77;;;;;;;22.14;56.11;100785.58;1722332;81;25727;-59
2021/05/28 11:12:26;;;;;;;11.88;5.58;;;;;;;22.13;56.17;100781.16;1722147;83;25685;-60
2021/05/28 11:15:12;;;;;;;9.20;3.67;;;;;;;22.16;56.81;100780.73;1714006;82;25813;-60
2021/05/28 11:18:04;;;;;;;9.30;5.60;;;;;;;22.15;57.18;100773.57;1707547;83;25687;-59
2021/05/28 11:20:38;;;;;;;12.05;4.78;;;;;;;22.12;57.01;100773.16;1709193;82;27410;-60
2021/05/28 11:23:18;;;;;;;10.72;3.83;;;;;;;22.07;57.23;100777.91;1710067;82;25780;-60
2021/05/28 11:25:52;;;;;;;16.73;4.17;;;;;;;21.99;57.49;100773.48;1711359;81;25743;-61
2021/05/28 11:28:20;;;;;;;8.90;3.52;;;;;;;21.92;57.84;100775.39;1711697;83;25839;-58